Boryslav — ENLB — position and weather

sailwx.info

Track history (hours):
 
Tides and Currents Weather Stations Pressure Air Temp Water Temp Dewpoint Dewpoint Depression Visibility Wind Speed Wind Dir Waves Ship Positions

Boryslav

Last reported at 2014-Sep-28 09:33 UTC. Time now 2014-Oct-02 16:33 UTC.
Position N 47°41' E 035°08'.

Length 86 m; draft 2.3 m.

Type: Ship (hazmat cat D). MMSI: 272088700.

Date/timePositionNaut miles runAvg speedWind from/ knotsBaromVisibWave heightAir tempDewpointWater temp
2014-Sep-28 09:33N 47°41' E 035°08'4 3.7
2014-Sep-28 08:33N 47°44' E 035°10'4 4.1
2014-Sep-28 07:33N 47°48' E 035°10'1 0.6
2014-Sep-28 06:33N 47°49' E 035°09'0 0.1
2014-Sep-28 05:33N 47°49' E 035°09'4 3.8
2014-Sep-28 04:33N 47°51' E 035°05'1 0.8
2014-Sep-28 03:33N 47°52' E 035°06'1 0.7
2014-Sep-28 02:34N 47°52' E 035°06'0 0.0
2014-Sep-27 11:10N 47°52' E 035°06'  
2014-Sep-22 12:20N 47°53' E 035°07'0 0.2
2014-Sep-22 11:33N 47°53' E 035°07'1 1.4
2014-Sep-22 10:33N 47°52' E 035°05'0 0.2
2014-Sep-22 09:33N 47°52' E 035°05'1 1.2
2014-Sep-22 08:33N 47°50' E 035°05'4 3.7
2014-Sep-22 07:33N 47°48' E 035°10'0 0.1
2014-Sep-22 06:33N 47°48' E 035°09'2 2.0
2014-Sep-22 05:33N 47°46' E 035°09'3 3.1
2014-Sep-22 04:33N 47°43' E 035°09'3 3.3
2014-Sep-22 03:33N 47°40' E 035°07'5 2.5
2014-Sep-22 01:33N 47°36' E 035°02'0 0.0
2014-Sep-22 00:28N 47°36' E 035°02'0 0.0
2014-Sep-21 23:32N 47°36' E 035°02'0 0.5
2014-Sep-21 22:32N 47°36' E 035°03'0 0.5
2014-Sep-21 21:32N 47°35' E 035°03'0 0.0
2014-Sep-21 20:30N 47°35' E 035°03'0 0.3
2014-Sep-21 19:33N 47°35' E 035°03'0 0.0
2014-Sep-21 18:33N 47°35' E 035°03'0 0.0
2014-Sep-21 17:30N 47°35' E 035°03'0 0.0
2014-Sep-21 16:32N 47°35' E 035°03'0 0.0
2014-Sep-21 15:21N 47°35' E 035°03'0 0.0
2014-Sep-21 14:33N 47°35' E 035°03'0 0.0
2014-Sep-21 13:30N 47°35' E 035°03'  
Track history (hours):
 
Tides and Currents Weather Stations Pressure Air Temp Water Temp Dewpoint Dewpoint Depression Visibility Wind Speed Wind Dir Waves Ship Positions

Boryslav

Last reported at 2014-Sep-28 09:33 UTC. Time now 2014-Oct-02 16:33 UTC.
Position N 47°41' E 035°08'.

Length 86 m; draft 2.3 m.

Type: Ship (hazmat cat D). MMSI: 272088700.

Date/timePositionNaut miles runAvg speedWind from/ knotsBaromVisibWave heightAir tempDewpointWater temp
2014-Sep-28 09:33N 47°41' E 035°08'4 3.7
2014-Sep-28 08:33N 47°44' E 035°10'4 4.1
2014-Sep-28 07:33N 47°48' E 035°10'1 0.6
2014-Sep-28 06:33N 47°49' E 035°09'0 0.1
2014-Sep-28 05:33N 47°49' E 035°09'4 3.8
2014-Sep-28 04:33N 47°51' E 035°05'1 0.8
2014-Sep-28 03:33N 47°52' E 035°06'1 0.7
2014-Sep-28 02:34N 47°52' E 035°06'0 0.0
2014-Sep-27 11:10N 47°52' E 035°06'  
2014-Sep-22 12:20N 47°53' E 035°07'0 0.2
2014-Sep-22 11:33N 47°53' E 035°07'1 1.4
2014-Sep-22 10:33N 47°52' E 035°05'0 0.2
2014-Sep-22 09:33N 47°52' E 035°05'1 1.2
2014-Sep-22 08:33N 47°50' E 035°05'4 3.7
2014-Sep-22 07:33N 47°48' E 035°10'0 0.1
2014-Sep-22 06:33N 47°48' E 035°09'2 2.0
2014-Sep-22 05:33N 47°46' E 035°09'3 3.1
2014-Sep-22 04:33N 47°43' E 035°09'3 3.3
2014-Sep-22 03:33N 47°40' E 035°07'5 2.5
2014-Sep-22 01:33N 47°36' E 035°02'0 0.0
2014-Sep-22 00:28N 47°36' E 035°02'0 0.0
2014-Sep-21 23:32N 47°36' E 035°02'0 0.5
2014-Sep-21 22:32N 47°36' E 035°03'0 0.5
2014-Sep-21 21:32N 47°35' E 035°03'0 0.0
2014-Sep-21 20:30N 47°35' E 035°03'0 0.3
2014-Sep-21 19:33N 47°35' E 035°03'0 0.0
2014-Sep-21 18:33N 47°35' E 035°03'0 0.0
2014-Sep-21 17:30N 47°35' E 035°03'0 0.0
2014-Sep-21 16:32N 47°35' E 035°03'0 0.0
2014-Sep-21 15:21N 47°35' E 035°03'0 0.0
2014-Sep-21 14:33N 47°35' E 035°03'0 0.0
2014-Sep-21 13:30N 47°35' E 035°03'  

Dump ship's entire track history